Time;durP1;ratioP1;P1;durP2;ratioP2;P2;SDS_P1;SDS_P2;PMS_P1;PMS_P2;Temp;Humidity;BMP_temperature;BMP_pressure;BME280_temperature;BME280_humidity;BME280_pressure;Samples;Min_cycle;Max_cycle;Signal;HPM_P1;HPM_P2
2023/03/08 00:01:29;;;;;;;43.03;19.88;;;26.70;99.90;;;;;;5109796;28;20054;-70
2023/03/08 00:03:57;;;;;;;43.33;21.80;;;26.60;99.90;;;;;;5098636;28;20024;-69
2023/03/08 00:06:25;;;;;;;55.35;34.60;;;26.70;99.90;;;;;;5096330;28;20036;-70
2023/03/08 00:08:57;;;;;;;44.30;24.73;;;26.60;99.90;;;;;;5096220;28;20035;-73
2023/03/08 00:11:24;;;;;;;41.33;24.07;;;26.70;99.90;;;;;;5096245;28;20055;-72
2023/03/08 00:13:51;;;;;;;55.33;37.33;;;26.60;99.90;;;;;;5096022;28;20032;-71
2023/03/08 00:16:17;;;;;;;63.15;37.28;;;26.70;99.90;;;;;;5096344;28;20027;-72
2023/03/08 00:18:44;;;;;;;52.80;43.53;;;26.70;99.90;;;;;;5096090;28;20495;-71
2023/03/08 00:21:13;;;;;;;60.47;39.75;;;26.80;99.90;;;;;;5095817;28;20060;-71
2023/03/08 00:23:40;;;;;;;40.70;25.17;;;26.70;99.90;;;;;;5096047;28;20028;-70
2023/03/08 00:26:08;;;;;;;42.83;23.05;;;26.80;99.90;;;;;;5095960;28;20099;-70
2023/03/08 00:28:34;;;;;;;45.47;21.02;;;26.70;99.90;;;;;;5095825;28;20016;-69
2023/03/08 00:31:10;;;;;;;38.28;18.45;;;26.60;99.90;;;;;;5095815;28;20038;-70
2023/03/08 00:33:36;;;;;;;40.60;19.20;;;26.50;99.90;;;;;;5095811;28;20062;-70
2023/03/08 00:36:04;;;;;;;39.50;19.83;;;26.50;99.90;;;;;;5095504;28;20016;-71
2023/03/08 00:38:33;;;;;;;43.83;21.73;;;26.70;99.90;;;;;;5095610;28;20020;-70
2023/03/08 00:41:00;;;;;;;44.35;22.88;;;26.70;99.90;;;;;;5095650;28;20023;-71
2023/03/08 00:43:28;;;;;;;46.50;25.33;;;26.70;99.90;;;;;;5095463;28;20074;-70
2023/03/08 00:45:55;;;;;;;39.85;24.05;;;26.70;99.90;;;;;;5095593;28;20511;-70
2023/03/08 00:48:22;;;;;;;45.97;21.75;;;26.70;99.90;;;;;;5095490;28;20066;-70
2023/03/08 00:50:49;;;;;;;34.67;20.40;;;26.70;99.90;;;;;;5095106;28;20031;-69
2023/03/08 00:53:15;;;;;;;45.72;24.35;;;26.70;99.90;;;;;;5095455;28;20055;-70
2023/03/08 00:55:56;;;;;;;46.67;26.33;;;26.70;99.90;;;;;;5095418;28;20046;-71
2023/03/08 00:58:24;;;;;;;51.50;25.70;;;26.70;99.90;;;;;;5095321;28;20020;-71
2023/03/08 01:00:51;;;;;;;93.43;53.97;;;26.70;99.90;;;;;;5093268;28;20023;-70
2023/03/08 01:03:20;;;;;;;91.35;58.15;;;26.80;99.90;;;;;;5081270;28;20027;-69
2023/03/08 01:05:49;;;;;;;70.78;37.33;;;27.00;99.90;;;;;;5086458;28;20026;-69
2023/03/08 01:08:17;;;;;;;60.38;32.13;;;27.00;99.90;;;;;;5095051;28;20107;-70
2023/03/08 01:10:52;;;;;;;40.03;25.75;;;27.10;99.90;;;;;;5094817;28;20103;-69
2023/03/08 01:13:19;;;;;;;46.90;23.42;;;27.30;99.90;;;;;;5094973;28;20016;-69
2023/03/08 01:15:46;;;;;;;45.25;21.70;;;27.20;99.90;;;;;;5093934;28;20042;-70
2023/03/08 01:18:13;;;;;;;47.63;23.55;;;27.40;99.90;;;;;;5094800;28;20108;-69
2023/03/08 01:20:39;;;;;;;44.13;19.98;;;27.40;99.90;;;;;;5095272;28;20418;-71
2023/03/08 01:23:06;;;;;;;52.10;26.33;;;27.50;99.90;;;;;;5094820;28;20049;-70
2023/03/08 01:25:33;;;;;;;43.22;21.83;;;27.50;99.90;;;;;;5094485;28;20020;-69
2023/03/08 01:27:59;;;;;;;43.08;21.70;;;27.60;99.90;;;;;;5094930;28;20503;-69
2023/03/08 01:30:26;;;;;;;33.65;19.55;;;27.70;99.90;;;;;;5094655;28;20106;-69
2023/03/08 01:32:53;;;;;;;68.57;44.63;;;27.70;99.90;;;;;;5094421;28;20027;-70
2023/03/08 01:35:19;;;;;;;39.85;19.98;;;27.80;99.90;;;;;;5094599;28;20020;-69
2023/03/08 01:37:52;;;;;;;38.70;19.05;;;27.90;99.90;;;;;;5094627;28;20107;-70
2023/03/08 01:40:19;;;;;;;36.58;19.60;;;27.90;99.90;;;;;;5094276;28;20028;-69
2023/03/08 01:42:45;;;;;;;36.67;19.70;;;28.00;99.90;;;;;;5094458;28;20108;-69
2023/03/08 01:45:48;;;;;;;40.55;18.23;;;28.10;99.90;;;;;;5094334;28;20059;-70
2023/03/08 01:48:16;;;;;;;32.97;15.65;;;28.10;99.90;;;;;;5094431;28;20032;-70
2023/03/08 01:50:44;;;;;;;39.78;16.95;;;28.20;99.90;;;;;;5093927;28;20024;-70
2023/03/08 01:53:11;;;;;;;34.15;14.82;;;28.30;99.90;;;;;;5094160;28;20020;-69
2023/03/08 01:55:38;;;;;;;35.83;14.88;;;28.30;99.90;;;;;;5094051;28;20669;-70
2023/03/08 01:58:05;;;;;;;34.70;17.55;;;28.30;99.90;;;;;;5094020;28;20028;-70
2023/03/08 02:00:31;;;;;;;38.80;17.95;;;28.20;99.90;;;;;;5094095;28;20020;-69
2023/03/08 02:03:03;;;;;;;31.90;16.52;;;28.30;99.90;;;;;;5093933;28;20016;-73
2023/03/08 02:05:30;;;;;;;37.72;16.25;;;28.40;99.90;;;;;;5093804;28;20028;-70
2023/03/08 02:07:57;;;;;;;31.48;14.93;;;28.30;99.90;;;;;;5093210;28;20024;-71
2023/03/08 02:10:23;;;;;;;32.65;14.65;;;28.40;99.90;;;;;;5093932;28;20067;-69
2023/03/08 02:12:50;;;;;;;35.60;16.75;;;28.30;99.90;;;;;;5093863;28;20108;-69
2023/03/08 02:15:19;;;;;;;45.05;19.30;;;28.30;99.90;;;;;;5093805;28;20115;-68
2023/03/08 02:17:46;;;;;;;57.22;31.70;;;28.40;99.90;;;;;;5093774;28;20384;-69
2023/03/08 02:20:22;;;;;;;114.30;73.28;;;28.50;99.90;;;;;;5093586;28;20460;-69
2023/03/08 02:22:52;;;;;;;40.78;18.42;;;28.70;99.90;;;;;;5093715;28;20039;-69
2023/03/08 02:25:25;;;;;;;42.63;15.77;;;28.80;99.90;;;;;;5093446;28;20032;-69
2023/03/08 02:27:54;;;;;;;33.17;11.68;;;28.80;99.90;;;;;;5093579;28;20035;-73
2023/03/08 02:30:25;;;;;;;26.42;12.38;;;28.70;99.90;;;;;;5093677;28;20016;-74
2023/03/08 02:32:52;;;;;;;72.90;45.28;;;28.80;99.90;;;;;;5093371;28;20171;-73
2023/03/08 02:35:18;;;;;;;49.92;26.50;;;28.90;99.90;;;;;;5093603;28;20028;-73
2023/03/08 02:37:45;;;;;;;30.48;14.75;;;29.00;99.90;;;;;;5093546;28;20020;-74
2023/03/08 02:40:12;;;;;;;30.08;14.40;;;29.10;99.90;;;;;;5093428;28;20020;-71
2023/03/08 02:42:39;;;;;;;29.00;13.27;;;29.10;99.90;;;;;;5093645;28;20519;-72
2023/03/08 02:45:07;;;;;;;40.53;15.45;;;29.00;99.90;;;;;;5093561;28;20484;-72
2023/03/08 02:47:34;;;;;;;25.95;11.88;;;29.10;99.90;;;;;;5093172;28;20032;-72
2023/03/08 02:50:00;;;;;;;29.17;12.25;;;29.10;99.90;;;;;;5093103;28;20029;-72
2023/03/08 02:52:27;;;;;;;19.65;10.48;;;29.30;99.90;;;;;;5092914;28;20036;-72
2023/03/08 02:54:53;;;;;;;23.10;11.93;;;29.30;99.90;;;;;;5092940;28;20031;-70
2023/03/08 02:57:20;;;;;;;30.02;13.63;;;29.40;99.90;;;;;;5092247;28;20400;-71
2023/03/08 02:59:47;;;;;;;37.28;14.90;;;29.30;99.90;;;;;;5092110;28;20130;-72
2023/03/08 03:02:14;;;;;;;32.22;14.23;;;29.30;99.90;;;;;;5091858;28;20027;-68
2023/03/08 03:04:40;;;;;;;32.10;13.90;;;29.30;99.90;;;;;;5092004;28;20024;-72
2023/03/08 03:07:07;;;;;;;31.00;16.50;;;29.30;99.90;;;;;;5092052;28;20453;-72
2023/03/08 03:09:35;;;;;;;34.42;17.23;;;29.30;99.90;;;;;;5091880;28;20035;-72
2023/03/08 03:12:01;;;;;;;36.03;15.60;;;29.30;99.90;;;;;;5091907;28;20020;-73
2023/03/08 03:14:29;;;;;;;29.50;12.63;;;29.30;99.90;;;;;;5091971;28;20052;-72
2023/03/08 03:16:55;;;;;;;31.00;13.32;;;29.40;99.90;;;;;;5089532;28;20070;-72
2023/03/08 03:19:22;;;;;;;35.15;12.65;;;29.50;99.90;;;;;;5091784;28;20016;-72
2023/03/08 03:21:48;;;;;;;33.20;13.05;;;29.60;99.90;;;;;;5092261;28;20110;-73
2023/03/08 03:24:15;;;;;;;29.60;12.23;;;29.50;99.90;;;;;;5091293;28;20492;-74
2023/03/08 03:26:41;;;;;;;35.10;17.02;;;29.40;99.90;;;;;;5090379;28;20387;-72
2023/03/08 03:29:08;;;;;;;27.27;14.32;;;29.40;99.90;;;;;;5092294;28;20556;-72
2023/03/08 03:31:35;;;;;;;28.33;12.75;;;29.50;99.90;;;;;;5092105;28;20024;-73
2023/03/08 03:34:01;;;;;;;29.38;11.68;;;29.60;99.90;;;;;;5092077;28;20016;-73
2023/03/08 03:36:28;;;;;;;22.17;11.30;;;29.70;99.90;;;;;;5092171;28;20027;-73
2023/03/08 03:38:55;;;;;;;28.33;11.77;;;29.70;99.90;;;;;;5094981;28;20016;-72
2023/03/08 03:41:22;;;;;;;26.50;10.55;;;29.80;99.90;;;;;;5096025;28;20103;-73
2023/03/08 03:43:49;;;;;;;26.95;11.57;;;29.90;99.90;;;;;;5096517;28;20036;-73
2023/03/08 03:46:18;;;;;;;25.92;11.77;;;29.90;99.90;;;;;;5093902;28;20511;-73
2023/03/08 03:48:45;;;;;;;23.95;10.82;;;29.90;99.90;;;;;;5096427;28;20024;-74
2023/03/08 03:51:16;;;;;;;32.05;11.88;;;29.90;99.90;;;;;;5096299;28;20048;-74
2023/03/08 03:53:43;;;;;;;20.08;9.43;;;30.00;99.90;;;;;;5096480;28;20020;-73
2023/03/08 03:56:22;;;;;;;20.13;9.80;;;30.00;99.90;;;;;;5095939;28;20055;-72
2023/03/08 03:58:50;;;;;;;36.15;12.05;;;29.90;99.90;;;;;;5095560;28;20024;-73
2023/03/08 04:01:25;;;;;;;26.25;10.98;;;29.90;99.90;;;;;;5093575;28;20016;-72
2023/03/08 04:03:52;;;;;;;27.33;12.00;;;29.80;99.90;;;;;;5096192;28;20032;-73
2023/03/08 04:06:22;;;;;;;21.85;9.75;;;29.80;99.90;;;;;;5095777;28;20495;-73
2023/03/08 04:08:51;;;;;;;27.13;10.55;;;29.90;99.90;;;;;;5095499;28;20067;-72
2023/03/08 04:11:21;;;;;;;26.92;10.00;;;30.00;99.90;;;;;;5092934;28;20024;-74
2023/03/08 04:13:48;;;;;;;20.95;9.82;;;30.10;99.90;;;;;;5095190;28;20021;-72
2023/03/08 04:16:18;;;;;;;24.70;8.88;;;30.10;99.90;;;;;;5095489;28;20016;-72
2023/03/08 04:18:45;;;;;;;22.60;8.95;;;30.10;99.90;;;;;;5094857;28;20069;-72
2023/03/08 04:21:12;;;;;;;20.73;8.77;;;30.20;99.90;;;;;;5094960;28;20530;-72
2023/03/08 04:23:39;;;;;;;21.15;8.57;;;30.30;99.90;;;;;;5094964;28;20028;-72
2023/03/08 04:26:07;;;;;;;23.10;8.68;;;30.40;99.90;;;;;;5095183;28;20016;-72
2023/03/08 04:28:33;;;;;;;17.67;8.02;;;30.60;99.90;;;;;;5094836;28;20525;-71
2023/03/08 04:31:11;;;;;;;17.45;8.05;;;30.70;99.90;;;;;;5094850;28;20042;-69
2023/03/08 04:33:37;;;;;;;24.33;8.80;;;30.80;99.90;;;;;;5092642;28;20040;-71
2023/03/08 04:36:04;;;;;;;21.73;8.82;;;30.90;99.90;;;;;;5094707;28;20048;-71
2023/03/08 04:38:35;;;;;;;27.13;10.45;;;30.80;99.90;;;;;;5094735;28;20379;-67
2023/03/08 04:41:04;;;;;;;20.55;8.65;;;30.90;99.90;;;;;;5094678;28;20028;-72
2023/03/08 04:43:34;;;;;;;19.30;8.30;;;30.90;99.90;;;;;;5091806;28;20039;-71
2023/03/08 04:46:01;;;;;;;21.55;8.85;;;31.10;99.90;;;;;;5095737;28;20439;-71
2023/03/08 04:48:28;;;;;;;22.38;7.82;;;31.20;99.90;;;;;;5095541;28;20073;-73
2023/03/08 04:50:56;;;;;;;18.27;8.55;;;31.20;99.90;;;;;;5095286;28;20044;-72
2023/03/08 04:53:27;;;;;;;22.42;9.50;;;31.10;99.90;;;;;;5095653;28;20472;-70
2023/03/08 04:55:54;;;;;;;26.90;9.10;;;31.20;99.90;;;;;;5095420;28;20469;-71
2023/03/08 04:58:21;;;;;;;20.20;9.02;;;31.30;99.90;;;;;;5095626;28;20100;-70
2023/03/08 05:00:48;;;;;;;21.50;9.88;;;31.30;99.90;;;;;;5095617;28;20020;-72
2023/03/08 05:03:14;;;;;;;22.73;9.52;;;31.30;99.90;;;;;;5095304;28;20024;-71
2023/03/08 05:05:53;;;;;;;22.20;9.98;;;31.20;99.90;;;;;;5095215;28;20020;-72
2023/03/08 05:08:20;;;;;;;19.75;8.77;;;31.30;99.90;;;;;;5095290;28;20035;-70
2023/03/08 05:10:56;;;;;;;22.50;9.90;;;31.30;99.90;;;;;;5095100;28;20417;-73
2023/03/08 05:13:23;;;;;;;29.92;9.90;;;31.40;99.90;;;;;;5095129;28;20027;-72
2023/03/08 05:15:50;;;;;;;18.02;8.10;;;31.50;99.90;;;;;;5095064;28;20027;-71
2023/03/08 05:18:17;;;;;;;21.88;8.20;;;31.70;99.90;;;;;;5095116;28;20051;-72
2023/03/08 05:20:43;;;;;;;16.58;7.68;;;31.80;99.90;;;;;;5095022;28;20020;-72
2023/03/08 05:23:10;;;;;;;16.90;7.25;;;31.80;99.90;;;;;;5094982;28;20040;-73
2023/03/08 05:25:43;;;;;;;16.00;7.47;;;31.90;99.90;;;;;;5088761;28;20472;-73
2023/03/08 05:28:14;;;;;;;17.92;6.88;;;31.90;99.90;;;;;;5079091;28;20025;-72
2023/03/08 05:30:41;;;;;;;12.50;6.67;;;32.00;99.90;;;;;;5074141;28;20020;-74
2023/03/08 05:33:08;;;;;;;17.33;7.80;;;32.00;99.90;;;;;;5074444;28;20028;-72
2023/03/08 05:35:34;;;;;;;19.88;7.22;;;32.00;99.90;;;;;;5074615;28;20065;-73
2023/03/08 05:38:01;;;;;;;18.05;7.55;;;32.00;99.90;;;;;;5073712;28;20024;-73
2023/03/08 05:40:28;;;;;;;20.42;8.13;;;31.90;99.90;;;;;;5074136;28;20485;-72
2023/03/08 05:42:55;;;;;;;21.42;9.38;;;31.80;99.90;;;;;;5079594;28;20047;-72
2023/03/08 05:45:21;;;;;;;24.83;12.07;;;31.70;99.90;;;;;;5094292;28;20028;-73
2023/03/08 05:47:48;;;;;;;33.22;20.98;;;31.70;99.90;;;;;;5094325;28;20088;-72
2023/03/08 05:50:14;;;;;;;22.58;10.35;;;31.70;99.90;;;;;;5094337;28;20024;-70
2023/03/08 05:52:46;;;;;;;21.80;9.07;;;31.60;99.90;;;;;;5094003;28;20484;-70
2023/03/08 05:55:12;;;;;;;19.65;8.63;;;31.60;99.90;;;;;;5094059;28;20028;-70
2023/03/08 05:57:39;;;;;;;27.25;11.38;;;31.60;99.90;;;;;;5092288;28;20107;-71
2023/03/08 06:00:06;;;;;;;21.15;9.80;;;31.50;99.90;;;;;;5081966;28;20147;-71
2023/03/08 06:02:33;;;;;;;109.20;72.72;;;31.50;99.90;;;;;;5073378;28;20447;-70
2023/03/08 06:04:59;;;;;;;43.00;23.30;;;31.50;99.90;;;;;;5073665;28;20029;-70
2023/03/08 06:07:26;;;;;;;32.95;13.55;;;31.50;99.90;;;;;;5073515;28;20029;-70
2023/03/08 06:09:53;;;;;;;23.65;10.65;;;31.60;99.90;;;;;;5073250;28;20032;-70
2023/03/08 06:12:20;;;;;;;19.77;8.20;;;31.60;99.90;;;;;;5073593;28;20036;-71
2023/03/08 06:14:46;;;;;;;36.95;22.27;;;31.70;99.90;;;;;;5073689;28;20052;-73
2023/03/08 06:17:13;;;;;;;20.17;11.15;;;31.70;99.90;;;;;;5073663;28;20073;-70
2023/03/08 06:19:39;;;;;;;18.70;8.73;;;31.60;99.90;;;;;;5073583;28;20016;-72
2023/03/08 06:22:06;;;;;;;30.00;9.07;;;31.60;99.90;;;;;;5072597;28;20496;-72
2023/03/08 06:24:33;;;;;;;22.08;10.55;;;31.50;99.90;;;;;;5071880;28;20032;-72
2023/03/08 06:26:59;;;;;;;24.17;10.75;;;31.40;99.90;;;;;;5073395;28;20024;-72
2023/03/08 06:29:26;;;;;;;21.38;9.30;;;31.30;99.90;;;;;;5074115;28;20024;-72
2023/03/08 06:31:52;;;;;;;16.33;8.18;;;31.30;99.90;;;;;;5073813;28;20028;-72
2023/03/08 06:34:19;;;;;;;25.42;12.15;;;31.20;99.90;;;;;;5074113;28;20529;-73
2023/03/08 06:36:45;;;;;;;24.58;11.45;;;31.30;99.90;;;;;;5074360;28;20029;-74
2023/03/08 06:39:12;;;;;;;19.33;10.07;;;31.40;99.90;;;;;;5074007;28;20024;-73
2023/03/08 06:41:38;;;;;;;20.63;9.13;;;31.40;99.90;;;;;;5074492;28;20107;-72
2023/03/08 06:44:05;;;;;;;17.75;7.68;;;31.50;99.90;;;;;;5074537;28;20060;-74
2023/03/08 06:46:31;;;;;;;19.83;7.97;;;31.60;99.90;;;;;;5074235;28;20077;-73
2023/03/08 06:49:00;;;;;;;22.17;11.07;;;31.70;99.90;;;;;;5074324;28;20032;-70
2023/03/08 06:51:27;;;;;;;20.80;9.38;;;31.80;99.90;;;;;;5074242;28;20048;-70
2023/03/08 06:53:53;;;;;;;22.92;9.00;;;31.90;99.90;;;;;;5074128;28;20017;-71
2023/03/08 06:56:20;;;;;;;25.67;9.00;;;31.90;99.90;;;;;;5074246;28;20465;-71
2023/03/08 06:58:46;;;;;;;30.17;16.45;;;32.10;99.90;;;;;;5073393;28;20024;-71
2023/03/08 07:01:13;;;;;;;20.52;7.25;;;32.20;99.90;;;;;;5079653;28;20078;-72
2023/03/08 07:03:40;;;;;;;28.45;15.88;;;32.30;99.90;;;;;;5078218;28;20032;-72
2023/03/08 07:06:09;;;;;;;20.88;10.05;;;32.30;99.90;;;;;;5073266;28;20362;-72
2023/03/08 07:08:36;;;;;;;20.95;9.80;;;32.30;99.90;;;;;;5073108;28;20067;-72
2023/03/08 07:11:03;;;;;;;18.70;7.57;;;32.40;99.90;;;;;;5073261;28;20024;-73
2023/03/08 07:13:30;;;;;;;16.05;7.72;;;32.50;99.90;;;;;;5075129;28;20384;-70
2023/03/08 07:15:57;;;;;;;15.20;6.85;;;32.50;99.90;;;;;;5077313;28;20028;-70
2023/03/08 07:18:23;;;;;;;89.32;61.50;;;32.50;99.90;;;;;;5077069;28;20025;-71
2023/03/08 07:20:56;;;;;;;50.50;34.65;;;32.40;99.90;;;;;;5077015;28;20063;-72
2023/03/08 07:23:24;;;;;;;24.23;9.48;;;32.40;99.90;;;;;;5075614;28;20205;-71
2023/03/08 07:25:50;;;;;;;20.45;10.50;;;32.40;99.90;;;;;;5077180;28;20031;-71
2023/03/08 07:28:17;;;;;;;21.92;9.32;;;32.40;99.90;;;;;;5077003;28;20151;-72
2023/03/08 07:30:48;;;;;;;21.92;10.85;;;32.40;99.90;;;;;;5076727;28;20032;-71
2023/03/08 07:33:15;;;;;;;22.27;12.17;;;32.40;99.90;;;;;;5076824;28;20104;-72
2023/03/08 07:35:42;;;;;;;14.55;8.23;;;32.30;99.90;;;;;;5076861;28;20286;-72
2023/03/08 07:38:10;;;;;;;17.50;7.88;;;32.30;99.90;;;;;;5076632;28;20154;-72
2023/03/08 07:40:36;;;;;;;16.77;8.57;;;32.20;99.90;;;;;;5076949;28;20024;-72
2023/03/08 07:43:03;;;;;;;22.23;10.68;;;32.30;99.90;;;;;;5076601;28;20020;-72
2023/03/08 07:45:30;;;;;;;22.80;9.35;;;32.30;99.90;;;;;;5076588;28;20025;-72
2023/03/08 07:47:57;;;;;;;17.20;9.80;;;32.30;99.90;;;;;;5076590;28;20056;-73
2023/03/08 07:50:24;;;;;;;17.83;8.88;;;32.40;99.90;;;;;;5079527;28;20020;-71
2023/03/08 07:52:50;;;;;;;16.38;7.53;;;32.40;99.90;;;;;;5085445;28;20128;-72
2023/03/08 07:55:17;;;;;;;21.27;9.70;;;32.40;99.90;;;;;;5076876;28;20048;-72
2023/03/08 07:57:43;;;;;;;18.02;8.38;;;32.20;99.90;;;;;;5076917;28;20021;-71
2023/03/08 08:00:10;;;;;;;18.25;9.57;;;32.10;99.90;;;;;;5076369;28;20420;-71
2023/03/08 08:02:37;;;;;;;22.35;9.60;;;32.10;99.90;;;;;;5076703;28;20027;-71
2023/03/08 08:05:04;;;;;;;22.88;8.65;;;32.10;99.90;;;;;;5076840;28;20518;-70
2023/03/08 08:07:31;;;;;;;19.00;8.02;;;32.20;99.90;;;;;;5076294;28;20032;-71
2023/03/08 08:09:58;;;;;;;39.78;26.40;;;32.30;99.90;;;;;;5076348;28;20028;-70
2023/03/08 08:12:24;;;;;;;56.28;34.78;;;32.40;99.90;;;;;;5076161;28;20028;-71
2023/03/08 08:14:52;;;;;;;28.88;18.20;;;32.40;99.90;;;;;;5096649;28;20357;-71
2023/03/08 08:17:19;;;;;;;48.63;30.90;;;32.50;99.90;;;;;;5096611;28;20028;-70
2023/03/08 08:19:46;;;;;;;22.30;11.98;;;32.50;99.90;;;;;;5096193;28;20384;-70
2023/03/08 08:22:12;;;;;;;22.73;6.30;;;32.40;99.90;;;;;;5095638;28;20025;-73
2023/03/08 08:24:39;;;;;;;17.05;6.35;;;32.00;99.90;;;;;;5092380;28;20154;-69
2023/03/08 08:27:05;;;;;;;29.85;6.32;;;31.80;99.90;;;;;;5085695;28;20026;-71
2023/03/08 08:29:32;;;;;;;17.00;7.90;;;31.50;99.90;;;;;;5077515;28;20024;-70
2023/03/08 08:31:59;;;;;;;29.55;17.85;;;31.20;99.90;;;;;;5084379;28;20409;-71
2023/03/08 08:34:25;;;;;;;23.85;10.55;;;30.90;99.90;;;;;;5075336;28;20096;-71
2023/03/08 08:36:52;;;;;;;18.30;9.32;;;30.70;99.90;;;;;;5075345;28;20104;-70
2023/03/08 08:39:18;;;;;;;19.15;11.65;;;30.60;99.90;;;;;;5075198;28;20066;-70
2023/03/08 08:41:45;;;;;;;23.15;13.55;;;30.50;99.90;;;;;;5075351;28;20082;-70
2023/03/08 08:44:11;;;;;;;26.17;13.63;;;30.40;99.90;;;;;;5075186;28;20082;-70
2023/03/08 08:46:38;;;;;;;25.20;13.57;;;30.50;99.90;;;;;;5073873;28;20074;-69
2023/03/08 08:49:04;;;;;;;20.52;13.10;;;30.50;99.90;;;;;;5075599;28;20055;-71
2023/03/08 08:51:31;;;;;;;25.15;13.63;;;30.50;99.90;;;;;;5075104;28;20048;-72
2023/03/08 08:53:58;;;;;;;24.10;10.77;;;30.50;99.90;;;;;;5074908;28;20028;-71
2023/03/08 08:56:26;;;;;;;45.60;32.03;;;30.50;99.90;;;;;;5075212;28;20025;-70
2023/03/08 08:58:54;;;;;;;35.72;23.15;;;30.50;99.90;;;;;;5075515;28;20350;-71
2023/03/08 09:01:24;;;;;;;31.80;18.63;;;30.60;99.90;;;;;;5074945;28;20048;-71
2023/03/08 09:03:50;;;;;;;26.92;14.85;;;30.60;99.90;;;;;;5075018;28;20059;-70
2023/03/08 09:06:18;;;;;;;19.33;10.55;;;30.60;99.90;;;;;;5074980;28;20047;-71
2023/03/08 09:08:48;;;;;;;21.23;9.88;;;;;;;;;;5074828;28;20485;-75
2023/03/08 09:11:15;;;;;;;44.65;12.52;;;30.70;99.90;;;;;;5074827;28;20047;-73
2023/03/08 09:13:42;;;;;;;27.35;14.02;;;30.60;99.90;;;;;;5074779;28;20016;-74
2023/03/08 09:16:34;;;;;;;27.00;10.70;;;30.70;99.90;;;;;;5074654;28;20418;-75
2023/03/08 09:19:03;;;;;;;23.17;9.35;;;30.70;99.90;;;;;;5074372;28;20032;-70
2023/03/08 09:21:31;;;;;;;18.95;10.27;;;30.70;99.90;;;;;;5074693;28;20051;-73
2023/03/08 09:24:05;;;;;;;23.20;10.18;;;30.70;99.90;;;;;;5074575;28;20021;-73
2023/03/08 09:26:33;;;;;;;26.27;13.60;;;30.70;99.90;;;;;;5074398;28;20052;-73
2023/03/08 09:29:03;;;;;;;24.67;15.02;;;30.80;99.90;;;;;;5074602;28;20036;-73
2023/03/08 09:31:31;;;;;;;19.92;10.18;;;30.90;99.90;;;;;;5074289;28;20036;-73
2023/03/08 09:33:59;;;;;;;25.45;10.65;;;30.90;99.90;;;;;;5074357;28;20091;-73
2023/03/08 09:36:27;;;;;;;49.72;28.80;;;30.90;99.90;;;;;;5073507;28;20377;-73
2023/03/08 09:38:54;;;;;;;26.67;12.52;;;30.90;99.90;;;;;;5074360;28;20013;-72
2023/03/08 09:41:53;;;;;;;19.27;9.23;;;30.90;99.90;;;;;;5074211;28;20547;-72
2023/03/08 09:44:42;;;;;;;37.10;22.15;;;30.80;99.90;;;;;;5089190;28;20071;-72
2023/03/08 09:47:34;;;;;;;59.15;35.00;;;30.90;99.90;;;;;;5088683;28;20024;-72
2023/03/08 09:50:14;;;;;;;21.92;13.82;;;30.80;99.90;;;;;;5093596;28;20515;-71
2023/03/08 09:52:56;;;;;;;41.95;22.33;;;30.80;99.90;;;;;;5091314;28;20396;-71
2023/03/08 09:55:29;;;;;;;21.05;10.32;;;30.80;99.90;;;;;;5082426;28;20016;-71
2023/03/08 09:57:59;;;;;;;18.08;7.75;;;30.80;99.90;;;;;;5094187;28;20027;-70
2023/03/08 10:00:31;;;;;;;18.58;8.27;;;30.70;99.90;;;;;;5093839;28;20089;-70
2023/03/08 10:03:26;;;;;;;22.73;9.45;;;30.70;99.90;;;;;;5079710;28;20028;-73
2023/03/08 10:06:20;;;;;;;20.48;9.05;;;30.70;99.90;;;;;;5093043;28;20035;-73
2023/03/08 10:09:18;;;;;;;27.45;9.73;;;30.70;99.90;;;;;;5091412;28;20035;-69
2023/03/08 10:11:54;;;;;;;26.75;12.75;;;30.70;99.90;;;;;;5091056;28;20046;-69
2023/03/08 10:14:33;;;;;;;31.67;13.60;;;30.70;99.90;;;;;;5088922;28;20567;-69
2023/03/08 10:17:09;;;;;;;28.98;11.95;;;30.60;99.90;;;;;;5088856;28;20483;-68
2023/03/08 10:19:37;;;;;;;23.23;11.65;;;30.70;99.90;;;;;;5092366;28;20357;-69
2023/03/08 10:22:14;;;;;;;20.80;9.15;;;30.70;99.90;;;;;;5090898;28;20091;-68
2023/03/08 10:25:00;;;;;;;30.02;9.50;;;30.60;99.90;;;;;;5086375;28;20020;-69
2023/03/08 10:27:34;;;;;;;22.58;9.38;;;30.60;99.90;;;;;;5091138;28;20024;-70
2023/03/08 10:30:10;;;;;;;24.15;9.45;;;30.60;99.90;;;;;;5090285;28;20032;-69
2023/03/08 10:32:46;;;;;;;29.70;11.65;;;30.60;99.90;;;;;;5092113;28;20353;-69
2023/03/08 10:35:14;;;;;;;28.15;9.95;;;30.60;99.90;;;;;;5092169;28;20012;-70
2023/03/08 10:37:40;;;;;;;19.55;8.38;;;30.60;99.90;;;;;;5089554;28;20030;-68
2023/03/08 10:40:15;;;;;;;22.35;7.88;;;30.60;99.90;;;;;;5092462;28;20023;-68
2023/03/08 10:42:52;;;;;;;14.95;7.40;;;30.60;99.90;;;;;;5092157;28;20031;-70
2023/03/08 10:45:21;;;;;;;21.92;10.02;;;30.60;99.90;;;;;;5091894;28;20039;-67
2023/03/08 10:48:04;;;;;;;42.15;23.33;;;30.60;99.90;;;;;;5091833;28;20028;-67
2023/03/08 10:50:35;;;;;;;54.38;29.08;;;30.60;99.90;;;;;;5090147;28;20027;-68
2023/03/08 10:53:31;;;;;;;43.78;25.92;;;30.60;99.90;;;;;;5085469;28;20384;-72
2023/03/08 10:56:00;;;;;;;33.83;18.58;;;30.60;99.90;;;;;;5089658;28;20032;-66
2023/03/08 10:58:33;;;;;;;26.50;11.40;;;30.60;99.90;;;;;;5089932;28;20020;-68
2023/03/08 11:01:04;;;;;;;23.38;10.85;;;30.60;99.90;;;;;;5092184;28;20487;-68
2023/03/08 11:03:31;;;;;;;25.10;11.93;;;30.60;99.90;;;;;;5091559;28;20024;-70
2023/03/08 11:06:15;;;;;;;24.15;11.65;;;30.70;99.90;;;;;;5091885;28;20020;-69
2023/03/08 11:09:03;;;;;;;31.60;13.07;;;30.60;99.90;;;;;;5091627;28;20016;-70
2023/03/08 11:11:41;;;;;;;29.50;12.52;;;30.70;99.90;;;;;;5091751;28;20030;-69
2023/03/08 11:14:10;;;;;;;30.55;12.77;;;30.60;99.90;;;;;;5092248;28;20440;-69
2023/03/08 11:16:52;;;;;;;38.22;17.08;;;30.60;99.90;;;;;;5091786;28;20103;-71
2023/03/08 11:19:40;;;;;;;170.75;122.88;;;30.60;99.90;;;;;;5091623;28;20847;-68
2023/03/08 11:22:18;;;;;;;46.78;29.67;;;30.50;99.90;;;;;;5091961;28;20028;-67
2023/03/08 11:25:03;;;;;;;110.95;65.10;;;30.50;99.90;;;;;;5088124;28;20389;-68
2023/03/08 11:27:35;;;;;;;39.45;24.23;;;30.50;99.90;;;;;;5092876;28;20081;-67
2023/03/08 11:30:22;;;;;;;81.10;39.53;;;30.50;99.90;;;;;;5092834;28;20103;-68
2023/03/08 11:33:20;;;;;;;74.68;38.92;;;30.40;99.90;;;;;;5090447;28;20016;-68
2023/03/08 11:36:08;;;;;;;72.55;35.80;;;30.50;99.90;;;;;;5089449;28;20327;-68
2023/03/08 11:38:36;;;;;;;41.05;18.88;;;30.40;99.90;;;;;;5092102;28;20077;-68
2023/03/08 11:41:45;;;;;;;49.50;26.02;;;30.30;99.90;;;;;;5092109;28;20028;-67
2023/03/08 11:44:29;;;;;;;58.05;35.97;;;30.20;99.90;;;;;;5091797;28;20035;-70
2023/03/08 11:47:05;;;;;;;58.22;31.55;;;30.10;99.90;;;;;;5091826;28;20012;-69
2023/03/08 11:49:50;;;;;;;66.00;40.22;;;30.00;99.90;;;;;;5090572;28;20024;-71
2023/03/08 11:52:50;;;;;;;37.78;22.10;;;30.00;99.90;;;;;;5091630;28;20052;-70
2023/03/08 11:55:30;;;;;;;37.15;16.30;;;29.90;99.90;;;;;;5091176;28;20492;-70
2023/03/08 11:58:30;;;;;;;28.20;12.82;;;29.90;99.90;;;;;;5091183;28;20024;-69
2023/03/08 12:01:02;;;;;;;40.83;16.23;;;29.80;99.90;;;;;;5093039;28;20020;-69
2023/03/08 12:03:38;;;;;;;30.45;12.73;;;29.90;99.90;;;;;;5093478;28;20024;-70
2023/03/08 12:06:13;;;;;;;24.70;11.82;;;29.80;99.90;;;;;;5096182;28;20152;-68
2023/03/08 12:08:46;;;;;;;27.35;12.50;;;29.70;99.90;;;;;;5095942;28;20483;-72
2023/03/08 12:11:29;;;;;;;30.65;12.50;;;29.70;99.90;;;;;;5094149;28;20023;-71
2023/03/08 12:14:26;;;;;;;43.53;16.85;;;29.70;99.90;;;;;;5096639;28;20108;-72
2023/03/08 12:17:01;;;;;;;27.23;13.02;;;29.70;99.90;;;;;;5096360;28;20472;-70
2023/03/08 12:20:01;;;;;;;35.08;16.52;;;29.60;99.90;;;;;;5096671;28;20051;-69
2023/03/08 12:22:53;;;;;;;29.92;15.63;;;29.60;99.90;;;;;;5093809;28;20097;-69
2023/03/08 12:25:23;;;;;;;;;;;29.60;99.90;;;;;;5076619;28;20051;-71
2023/03/08 12:27:49;;;;;;;34.92;13.95;;;29.50;99.90;;;;;;5076291;28;19908;-69
2023/03/08 12:30:26;;;;;;;33.75;16.23;;;29.50;99.90;;;;;;5090865;28;20078;-68
2023/03/08 12:32:55;;;;;;;34.85;15.43;;;29.40;99.90;;;;;;5096580;28;20027;-69
2023/03/08 12:35:33;;;;;;;34.67;14.85;;;29.40;99.90;;;;;;5096836;28;20063;-69
2023/03/08 12:38:36;;;;;;;34.17;14.05;;;29.40;99.90;;;;;;5096379;28;20051;-69
2023/03/08 12:41:08;;;;;;;30.15;13.90;;;29.40;99.90;;;;;;5096507;28;20017;-68
2023/03/08 12:43:39;;;;;;;30.65;14.65;;;29.40;99.90;;;;;;5096424;28;20019;-68
2023/03/08 12:46:09;;;;;;;36.40;19.20;;;29.40;99.90;;;;;;5096306;28;20099;-69
2023/03/08 12:48:47;;;;;;;39.33;23.13;;;29.40;99.90;;;;;;5095965;28;20472;-68